Hickory Regional Airport
KHKY : now visible

Airfield :











YOU CAN JOIN US ON...

 
LOGIN :

Register | Disclaimer

   EN    FR    IT 

 









Legend :    VFR   Marginal VFR   IFR   Intensive IFR   Very Intensive IFR
Visi :
Ceiling :
>= 8 km
>= 3000ft
5 to 8 km
1000 to 3000 ft
1500m to 5 km
500 to 1000 ft
800 to 1500m
200 to 500 ft
< 800m
< 200 ft
Symbols :   Thunderstorms  Fog  Heavy snow  Heavy precipitations  Wind > 20 kt






- Airport Elevation : 1190 ft
- IATA code : HKY


KHKY - Hickory Regional

CURRENT METAR :
  • 060453Z AUTO 34003KT 10SM SCT100 21/20 A3007 RMK AO2 RAE23 SLP157 P0024 T02110200 403170206

EXPIRED METARs :
  • 060353Z AUTO 00000KT 9SM -RA FEW075 SCT110 22/20 A3006 RMK AO2 LTG DSNT N AND NW RAE28B43 TSE04B14E29 SLP154 P0042 T02170200
  • 060335Z AUTO 25003KT 10SM VCTS SCT110 21/19 A3006 RMK AO2 LTG DSNT NW RAE28 TSE04B14E29 P0031 T02110194
  • 060311Z AUTO 28005KT 4SM VCTS RA BR SCT038 BKN100 OVC110 21/19 A3006 RMK AO2 LTG DSNT SW TSE04 P0015 T02110194
  • 060304Z AUTO 28010KT 2 1/2SM VCTS RA BR BKN036 BKN070 OVC090 21/19 A3006 RMK AO2 LTG DSNT SW TSE04 PRESFR P0009 T02060194

TAF KHKY
Valid from the 06 at 03:00 until the 07 at 00:00 UTC


060245Z 0603/0624 04003KT P6SM BKN100
TEMPO 0603/0604 18010G20KT 1SM TSRA BR BKN025CB
FM061100 00000KT 5SM BR SCT100
FM061400 13003KT P6SM FEW200
PROB30 0620/0624 4SM TSRA BR BKN100CB
KZTL FIR / North America



MET'MAP, your aeronautical weather chart ! - Copyright ORBIFLY December 2007 - Disclaimer

ORBIFLY MET'MAP TEAM :

Programming & Development : Alexandra Zaïnal
Concept & original design : Baudouin d'Aumeries
Assistance for programming : Marc-Olivier Méhu
Technical & hardware support : Manuel Goepfert

Contact : metmap@orbifly.com




SOURCES & CREDITS :

   NOAA       Earth
Advisory